Auburn, New Hampshire
Current Conditions -  °F | °C
As of 11:53 PM on Wednesday 22 Oct 2014 (Local Time) from KMHT Reporting Station
Light Rain Light Rain  
Wind Chill:   Ceiling: 1200
Heat Index:   Visibility: 3mi
Dew Point:   Wind: 22mph
Humidity: 86%   Direction: 20°NNE
Pressure: 29.87"   Gusts: 26mph
Location:  43°N, 71.35°W
Report Text: KMHT 230353Z 02019G23KT 3SM -RA BR BKN012 OVC019 09/07 A2987 RMK AO2 PK WND 03031/0326 RAB0255 SLP130 P0007 T00890067
Loading
Personal Weather Stations






























Interactive Weather Map
Tropical Storm Tracking
New forecast layout! Learn more

10-Day Weather Forecast

Advertisements
Track Severe Weather on mobile